• Join FlightAware (Why Join?)
  • Login
  • US Flag 
10:55AM EDT


 

Airport Tracker/Info


-or-


 

Live Flight TrackerFlight Track Log ✈ FLG4222 ✈ 28-Sep-2013 ✈ KBGM - KDTW

Flight Track Log - Related Links

Times and Time Zones

All times are in EDT time to prevent confusion due to time zone crossing. See the FLG4222 flight status page for this flight to view local times or setup timezone preferences in your user account.

Time Position Orientation Groundspeed Altitude Reporting Facility
EDT Latitude Longitude Course Direction KTS MPH feet Rate Location/Type
11:44AM 42.1222 -75.9581 288° West 220 253 5,900  Level Cleveland Center
11:45AM 42.1475 -76.0569 289° West 270 311 7,800 1,440 Climbing Cleveland Center
11:46AM 42.1803 -76.1550 294° West 212 244 8,900 1,620 Climbing New York Center
11:47AM 42.2108 -76.2611 291° West 264 304 11,100 1,980 Climbing New York Center
11:48AM 42.2575 -76.3989 295° West 341 392 13,000 1,800 Climbing Cleveland Center
11:49AM 42.2323 -76.8010 299° West  Level Estimated
11:49AM 42.2989 -76.5300 293° West 359 413 15,000  Level Cleveland Center
11:50AM 42.2357 -76.9380 288° West  Level Estimated
11:50AM 42.3386 -76.6578 293° West 369 425 16,800  Level Cleveland Center
11:51AM 42.3792 -76.7892 293° West 379 436 17,900 1,080 Climbing Cleveland Center
11:53AM 42.4203 -76.9239 292° West 385 443 19,100 1,140 Climbing Cleveland Center
11:54AM 42.4631 -77.0633 293° West 398 458 20,300 1,140 Climbing Cleveland Center
11:55AM 42.5050 -77.2033 292° West 402 463 21,500 1,080 Climbing Cleveland Center
11:56AM 42.5475 -77.3439 292° West 403 464 22,600 1,020 Climbing Cleveland Center
11:57AM 42.5972 -77.5094 292° West 406 467 23,700 660 Climbing Cleveland Center
11:58AM 42.6389 -77.6519 292° West 407 468 24,000 120 Climbing Cleveland Center
11:59AM 42.6894 -77.8194 292° West 432 497 24,000  Level Cleveland Center
12:00PM 42.7281 -77.9514 292° West 444 511 24,000  Level Cleveland Center
12:01PM 42.7817 -78.1347 292° West 437 503 24,000  Level Cleveland Center
12:02PM 42.8253 -78.2878 291° West 437 503 24,000  Level Cleveland Center
12:03PM 42.8694 -78.4400 292° West 434 499 24,000  Level Cleveland Center
12:04PM 42.9136 -78.5928 292° West 436 502 24,000  Level Cleveland Center
12:05PM 42.9114 -78.7556 269° West 450 518 24,000  Level Cleveland Center
12:06PM 42.8892 -78.9222 260° West 447 514 24,000  Level Cleveland Center
12:07PM 42.8600 -79.1200 259° West 445 512 24,000  Level Cleveland Center
12:08PM 42.8356 -79.2836 259° West 443 510 24,000  Level Cleveland Center
12:09PM 42.8111 -79.4467 259° West 442 509 24,000  Level Cleveland Center
12:10PM 42.7858 -79.6106 258° West 442 509 24,000  Level Cleveland Center
12:11PM 42.7606 -79.7736 258° West 443 510 24,000  Level Cleveland Center
12:12PM 42.7467 -79.9394 264° West 440 506 24,000  Level Cleveland Center
12:13PM 42.7383 -80.1300 267° West 441 507 24,000  Level Cleveland Center
12:14PM 42.7319 -80.2969 267° West 442 509 24,000  Level Cleveland Center
12:15PM 42.7231 -80.4614 266° West 437 503 24,000  Level Cleveland Center
12:16PM 42.7169 -80.6275 267° West 437 503 24,000  Level Cleveland Center
12:17PM 42.7092 -80.7978 267° West 447 514 24,000  Level Cleveland Center
12:18PM 42.6972 -80.9644 264° West 444 511 24,000 -540 Level Cleveland Center
12:19PM 42.6747 -81.1561 261° West 440 506 22,900 -1,080 Descending Cleveland Center
12:20PM 42.6572 -81.3200 262° West 437 503 21,800 -1,020 Descending Cleveland Center
12:21PM 42.6375 -81.4783 260° West 426 490 20,800 -900 Descending Cleveland Center
12:22PM 42.6186 -81.6333 261° West 418 481 20,000 -420 Descending Cleveland Center
12:23PM 42.6003 -81.7956 261° West 406 467 20,000  Level Cleveland Center
12:24PM 42.5814 -81.9461 260° West 405 466 20,000 -840 Level Cleveland Center
12:25PM 42.5628 -82.0969 261° West 407 468 18,400 -1,920 Descending Cleveland Center
12:26PM 42.5589 -82.1369 262° West 404 465 17,700 -2,580 Descending Cleveland Center
12:26PM 42.5450 -82.2514 261° West 398 458 16,000 -2,100 Descending Cleveland Center
12:27PM 42.5450 -82.2453 90° East 403 464 16,000 -2,640 Level Cleveland Center
12:27PM 42.5297 -82.3825 261° West 377 434 13,600 -2,520 Descending Cleveland Center
12:28PM 42.5275 -82.3858 228° Southwest 388 447 13,400 -1,560 Descending Cleveland Center
12:28PM 42.5147 -82.5078 262° West 323 372 12,000 -1,380 Descending Cleveland Center
12:29PM 42.5111 -82.5125 224° Southwest 353 406 12,000 -420 Level Cleveland Center
12:29PM 42.4842 -82.6142 250° West 303 349 11,600 -780 Descending Cleveland Center
12:30PM 42.4736 -82.6361 237° Southwest 303 349 11,200 -1,380 Descending Cleveland Center
12:30PM 42.4472 -82.7225 248° West 297 342 10,200 -1,260 Descending Cleveland Center
12:31PM 42.4392 -82.7372 233° Southwest 299 344 9,900 -1,380 Descending Cleveland Center
12:31PM 42.4211 -82.8208 254° West 284 327 8,800 -1,380 Descending Cleveland Center
12:32PM 42.4183 -82.8372 257° West 283 326 8,500 -1,380 Descending Cleveland Center
12:32PM 42.4072 -82.9264 260° West 283 326 7,400 -1,260 Descending Cleveland Center
12:33PM 42.4028 -82.9425 250° West 284 327 7,200 -840 Descending Cleveland Center
12:33PM 42.3933 -83.0261 261° West 247 284 6,600 -600 Descending Cleveland Center
12:34PM 42.3911 -83.0356 252° West 262 302 6,600 -600 Level Cleveland Center
12:35PM 42.3775 -83.0975 253° West 181 208 6,000 -720 Descending Cleveland Center
12:35PM 42.3742 -83.1017 223° Southwest 202 232 5,900 -1,020 Descending Cleveland Center
12:36PM 42.3619 -83.1658 256° West 182 209 5,000 -1,200 Descending Cleveland Center
12:36PM 42.3586 -83.1822 255° West 185 213 4,700 -540 Descending Cleveland Center
12:37PM 42.3467 -83.2289 251° West 170 196 4,500 -300 Descending Cleveland Center
12:37PM 42.3386 -83.2389 223° Southwest 171 197 4,400 -1,020 Descending Cleveland Center
12:38PM 42.3081 -83.2686 216° Southwest 164 189 3,500 -1,200 Descending Cleveland Center
12:38PM 42.2994 -83.2744 207° Southwest 169 194 3,200 -1,320 Descending Cleveland Center
12:39PM 42.2744 -83.2950 211° Southwest 146 168 2,300 -1,260 Descending Cleveland Center
12:39PM 42.2622 -83.3011 200° South 158 182 1,900 -1,020 Descending Cleveland Center
12:40PM 42.2367 -83.3236 213° Southwest 139 160 1,200 -900 Descending Cleveland Center
12:40PM 42.2289 -83.3258 192° South 142 163 1,000 -600 Descending Cleveland Center
12:42PM 42.2124 -83.3534 246° West  Level Estimated
12:49PM 42.2124 -83.3534 246° West  Level Estimated